sensor_id;sensor_type;location;lat;lon;timestamp;pressure;altitude;pressure_sealevel;temperature;humidity
49342;BME280;35210;41.606;-87.602;2023-07-28T00:00:13;99192.19;;;34.11;62.40
49342;BME280;35210;41.606;-87.602;2023-07-28T00:02:43;99183.44;;;34.09;62.38
49342;BME280;35210;41.606;-87.602;2023-07-28T00:05:12;99180.69;;;34.09;62.55
49342;BME280;35210;41.606;-87.602;2023-07-28T00:07:40;99176.31;;;34.08;62.75
49342;BME280;35210;41.606;-87.602;2023-07-28T00:10:09;99180.44;;;34.05;62.81
49342;BME280;35210;41.606;-87.602;2023-07-28T00:12:37;99193.31;;;34.00;62.48
49342;BME280;35210;41.606;-87.602;2023-07-28T00:15:06;99190.59;;;33.94;62.49
49342;BME280;35210;41.606;-87.602;2023-07-28T00:17:34;99192.25;;;33.90;62.81
49342;BME280;35210;41.606;-87.602;2023-07-28T00:20:06;99190.31;;;33.96;62.89
49342;BME280;35210;41.606;-87.602;2023-07-28T00:22:34;99190.03;;;33.92;62.03
49342;BME280;35210;41.606;-87.602;2023-07-28T00:25:03;99194.97;;;33.90;61.94
49342;BME280;35210;41.606;-87.602;2023-07-28T00:27:32;99193.63;;;33.83;61.93
49342;BME280;35210;41.606;-87.602;2023-07-28T00:30:00;99197.72;;;33.80;62.12
49342;BME280;35210;41.606;-87.602;2023-07-28T00:32:28;99182.13;;;33.81;61.49
49342;BME280;35210;41.606;-87.602;2023-07-28T00:34:57;99178.53;;;33.75;61.97
49342;BME280;35210;41.606;-87.602;2023-07-28T00:37:26;99188.41;;;33.71;62.32
49342;BME280;35210;41.606;-87.602;2023-07-28T00:39:54;99204.81;;;33.66;62.60
49342;BME280;35210;41.606;-87.602;2023-07-28T00:42:23;99220.69;;;33.59;62.49
49342;BME280;35210;41.606;-87.602;2023-07-28T00:44:51;99245.34;;;33.54;62.94
49342;BME280;35210;41.606;-87.602;2023-07-28T00:47:19;99245.88;;;33.46;64.72
49342;BME280;35210;41.606;-87.602;2023-07-28T00:49:47;99244.53;;;33.38;65.91
49342;BME280;35210;41.606;-87.602;2023-07-28T00:52:16;99243.69;;;33.33;64.83
49342;BME280;35210;41.606;-87.602;2023-07-28T00:54:46;99249.13;;;33.27;64.14
49342;BME280;35210;41.606;-87.602;2023-07-28T00:57:26;99248.03;;;33.23;64.13
49342;BME280;35210;41.606;-87.602;2023-07-28T00:59:54;99239.25;;;33.21;64.79
49342;BME280;35210;41.606;-87.602;2023-07-28T01:02:23;99234.34;;;33.18;64.35
49342;BME280;35210;41.606;-87.602;2023-07-28T01:04:51;99237.06;;;33.13;64.45
49342;BME280;35210;41.606;-87.602;2023-07-28T01:07:27;99244.16;;;33.09;64.45
49342;BME280;35210;41.606;-87.602;2023-07-28T01:10:02;99258.91;;;33.03;64.34
49342;BME280;35210;41.606;-87.602;2023-07-28T01:12:32;99249.34;;;33.01;64.53
49342;BME280;35210;41.606;-87.602;2023-07-28T01:15:01;99235.94;;;32.99;64.48
49342;BME280;35210;41.606;-87.602;2023-07-28T01:17:29;99245.50;;;33.02;64.06
49342;BME280;35210;41.606;-87.602;2023-07-28T01:19:58;99252.84;;;32.91;64.60
49342;BME280;35210;41.606;-87.602;2023-07-28T01:22:56;99249.28;;;32.85;64.66
49342;BME280;35210;41.606;-87.602;2023-07-28T01:25:41;99250.63;;;32.78;64.84
49342;BME280;35210;41.606;-87.602;2023-07-28T01:28:13;99268.06;;;32.72;65.09
49342;BME280;35210;41.606;-87.602;2023-07-28T01:30:46;99264.25;;;32.67;65.41
49342;BME280;35210;41.606;-87.602;2023-07-28T01:33:15;99278.44;;;32.64;66.06
49342;BME280;35210;41.606;-87.602;2023-07-28T01:35:43;99272.69;;;32.61;65.66
49342;BME280;35210;41.606;-87.602;2023-07-28T01:38:11;99277.03;;;32.57;65.83
49342;BME280;35210;41.606;-87.602;2023-07-28T01:40:40;99271.28;;;32.53;65.75
49342;BME280;35210;41.606;-87.602;2023-07-28T01:43:08;99272.06;;;32.49;65.47
49342;BME280;35210;41.606;-87.602;2023-07-28T01:45:38;99268.22;;;32.45;65.22
49342;BME280;35210;41.606;-87.602;2023-07-28T01:48:06;99272.56;;;32.41;65.00
49342;BME280;35210;41.606;-87.602;2023-07-28T01:50:35;99274.19;;;32.37;64.98
49342;BME280;35210;41.606;-87.602;2023-07-28T01:53:05;99281.25;;;32.32;65.29
49342;BME280;35210;41.606;-87.602;2023-07-28T01:55:35;99288.91;;;32.30;65.01
49342;BME280;35210;41.606;-87.602;2023-07-28T01:58:03;99292.97;;;32.28;65.72
49342;BME280;35210;41.606;-87.602;2023-07-28T02:00:31;99296.22;;;32.25;65.94
49342;BME280;35210;41.606;-87.602;2023-07-28T02:03:01;99301.13;;;32.23;66.31
49342;BME280;35210;41.606;-87.602;2023-07-28T02:05:30;99292.59;;;32.19;66.32
49342;BME280;35210;41.606;-87.602;2023-07-28T02:07:58;99291.75;;;32.14;65.48
49342;BME280;35210;41.606;-87.602;2023-07-28T02:10:27;99287.88;;;32.10;65.55
49342;BME280;35210;41.606;-87.602;2023-07-28T02:12:56;99298.00;;;32.09;65.98
49342;BME280;35210;41.606;-87.602;2023-07-28T02:15:25;99302.91;;;32.07;65.64
49342;BME280;35210;41.606;-87.602;2023-07-28T02:17:53;99306.41;;;32.02;65.75
49342;BME280;35210;41.606;-87.602;2023-07-28T02:20:22;99317.03;;;31.99;66.86
49342;BME280;35210;41.606;-87.602;2023-07-28T02:22:51;99309.34;;;31.96;67.10
49342;BME280;35210;41.606;-87.602;2023-07-28T02:25:19;99309.91;;;31.93;67.24
49342;BME280;35210;41.606;-87.602;2023-07-28T02:27:47;99304.97;;;31.90;67.45
49342;BME280;35210;41.606;-87.602;2023-07-28T02:30:15;99313.69;;;31.87;67.37
49342;BME280;35210;41.606;-87.602;2023-07-28T02:32:43;99301.38;;;31.84;66.73
49342;BME280;35210;41.606;-87.602;2023-07-28T02:35:11;99300.81;;;31.82;66.78
49342;BME280;35210;41.606;-87.602;2023-07-28T02:37:41;99296.44;;;31.81;66.55
49342;BME280;35210;41.606;-87.602;2023-07-28T02:40:10;99302.41;;;31.78;67.00
49342;BME280;35210;41.606;-87.602;2023-07-28T02:42:39;99305.91;;;31.74;67.08
49342;BME280;35210;41.606;-87.602;2023-07-28T02:45:07;99309.97;;;31.71;66.51
49342;BME280;35210;41.606;-87.602;2023-07-28T02:47:36;99306.69;;;31.69;66.27
49342;BME280;35210;41.606;-87.602;2023-07-28T02:50:05;99298.41;;;31.64;66.98
49342;BME280;35210;41.606;-87.602;2023-07-28T02:52:33;99295.94;;;31.62;67.08
49342;BME280;35210;41.606;-87.602;2023-07-28T02:55:03;99291.84;;;31.60;67.72
49342;BME280;35210;41.606;-87.602;2023-07-28T02:57:31;99288.78;;;31.56;67.63
49342;BME280;35210;41.606;-87.602;2023-07-28T02:59:59;99278.13;;;31.55;67.31
49342;BME280;35210;41.606;-87.602;2023-07-28T03:02:27;99288.22;;;31.54;67.40
49342;BME280;35210;41.606;-87.602;2023-07-28T03:04:55;99294.19;;;31.51;67.29
49342;BME280;35210;41.606;-87.602;2023-07-28T03:07:23;99302.06;;;31.48;67.76
49342;BME280;35210;41.606;-87.602;2023-07-28T03:09:51;99302.59;;;31.45;68.41
49342;BME280;35210;41.606;-87.602;2023-07-28T03:12:21;99290.53;;;31.41;68.12
49342;BME280;35210;41.606;-87.602;2023-07-28T03:14:49;99291.63;;;31.40;68.09
49342;BME280;35210;41.606;-87.602;2023-07-28T03:17:18;99287.19;;;31.33;68.12
49342;BME280;35210;41.606;-87.602;2023-07-28T03:19:46;99284.97;;;31.30;68.62
49342;BME280;35210;41.606;-87.602;2023-07-28T03:22:14;99273.50;;;31.28;68.50
49342;BME280;35210;41.606;-87.602;2023-07-28T03:24:42;99270.78;;;31.28;68.46
49342;BME280;35210;41.606;-87.602;2023-07-28T03:27:12;99267.16;;;31.23;68.84
49342;BME280;35210;41.606;-87.602;2023-07-28T03:29:42;99264.16;;;31.19;68.90
49342;BME280;35210;41.606;-87.602;2023-07-28T03:32:10;99275.84;;;31.15;69.16
49342;BME280;35210;41.606;-87.602;2023-07-28T03:34:38;99268.13;;;31.12;69.42
49342;BME280;35210;41.606;-87.602;2023-07-28T03:37:06;99274.91;;;31.09;70.60
49342;BME280;35210;41.606;-87.602;2023-07-28T03:39:35;99268.06;;;31.07;70.86
49342;BME280;35210;41.606;-87.602;2023-07-28T03:42:03;99254.94;;;31.03;71.24
49342;BME280;35210;41.606;-87.602;2023-07-28T03:44:31;99265.03;;;31.03;70.94
49342;BME280;35210;41.606;-87.602;2023-07-28T03:47:01;99260.66;;;31.02;71.09
49342;BME280;35210;41.606;-87.602;2023-07-28T03:49:30;99259.53;;;30.98;71.06
49342;BME280;35210;41.606;-87.602;2023-07-28T03:51:58;99252.94;;;30.94;71.40
49342;BME280;35210;41.606;-87.602;2023-07-28T03:54:26;99252.34;;;30.92;72.62
49342;BME280;35210;41.606;-87.602;2023-07-28T03:56:54;99259.41;;;30.88;73.16
49342;BME280;35210;41.606;-87.602;2023-07-28T03:59:23;99259.06;;;30.84;73.21
49342;BME280;35210;41.606;-87.602;2023-07-28T04:01:51;99265.88;;;30.82;72.96
49342;BME280;35210;41.606;-87.602;2023-07-28T04:04:21;99276.19;;;30.80;73.24
49342;BME280;35210;41.606;-87.602;2023-07-28T04:06:50;99272.06;;;30.77;73.51
49342;BME280;35210;41.606;-87.602;2023-07-28T04:09:20;99269.34;;;30.77;74.05
49342;BME280;35210;41.606;-87.602;2023-07-28T04:11:48;99272.59;;;30.74;74.51
49342;BME280;35210;41.606;-87.602;2023-07-28T04:14:16;99276.63;;;30.71;74.72
49342;BME280;35210;41.606;-87.602;2023-07-28T04:16:44;99295.13;;;30.69;75.25
49342;BME280;35210;41.606;-87.602;2023-07-28T04:19:12;99292.91;;;30.66;75.35
49342;BME280;35210;41.606;-87.602;2023-07-28T04:21:41;99298.38;;;30.66;75.82
49342;BME280;35210;41.606;-87.602;2023-07-28T04:24:11;99286.91;;;30.64;75.42
49342;BME280;35210;41.606;-87.602;2023-07-28T04:26:39;99292.84;;;30.61;76.76
49342;BME280;35210;41.606;-87.602;2023-07-28T04:29:09;99302.34;;;30.59;77.10
49342;BME280;35210;41.606;-87.602;2023-07-28T04:31:37;99307.19;;;30.57;77.56
49342;BME280;35210;41.606;-87.602;2023-07-28T04:34:05;99303.06;;;30.54;77.59
49342;BME280;35210;41.606;-87.602;2023-07-28T04:36:33;99309.03;;;30.51;77.68
49342;BME280;35210;41.606;-87.602;2023-07-28T04:39:03;99312.81;;;30.50;78.02
49342;BME280;35210;41.606;-87.602;2023-07-28T04:41:31;99300.53;;;30.48;77.76
49342;BME280;35210;41.606;-87.602;2023-07-28T04:43:59;99301.88;;;30.45;78.46
49342;BME280;35210;41.606;-87.602;2023-07-28T04:46:27;99311.38;;;30.43;78.48
49342;BME280;35210;41.606;-87.602;2023-07-28T04:48:56;99311.88;;;30.39;78.67
49342;BME280;35210;41.606;-87.602;2023-07-28T04:51:24;99315.69;;;30.38;79.01
49342;BME280;35210;41.606;-87.602;2023-07-28T04:53:52;99308.25;;;30.34;79.51
49342;BME280;35210;41.606;-87.602;2023-07-28T04:56:22;99312.63;;;30.35;79.43
49342;BME280;35210;41.606;-87.602;2023-07-28T04:58:51;99304.94;;;30.32;79.34
49342;BME280;35210;41.606;-87.602;2023-07-28T05:01:19;99310.41;;;30.32;79.33
49342;BME280;35210;41.606;-87.602;2023-07-28T05:03:47;99305.44;;;30.29;79.16
49342;BME280;35210;41.606;-87.602;2023-07-28T05:06:15;99305.44;;;30.29;79.71
49342;BME280;35210;41.606;-87.602;2023-07-28T05:08:44;99310.91;;;30.29;80.20
49342;BME280;35210;41.606;-87.602;2023-07-28T05:11:12;99315.53;;;30.28;80.10
49342;BME280;35210;41.606;-87.602;2023-07-28T05:13:42;99303.81;;;30.28;80.25
49342;BME280;35210;41.606;-87.602;2023-07-28T05:16:10;99301.56;;;30.25;80.51
49342;BME280;35210;41.606;-87.602;2023-07-28T05:18:38;99295.56;;;30.23;80.85
49342;BME280;35210;41.606;-87.602;2023-07-28T05:21:08;99300.91;;;30.18;81.47
49342;BME280;35210;41.606;-87.602;2023-07-28T05:23:37;99307.44;;;30.17;81.93
49342;BME280;35210;41.606;-87.602;2023-07-28T05:26:05;99307.94;;;30.14;82.01
49342;BME280;35210;41.606;-87.602;2023-07-28T05:28:35;99304.63;;;30.12;82.27
49342;BME280;35210;41.606;-87.602;2023-07-28T05:31:07;99294.81;;;30.11;82.92
49342;BME280;35210;41.606;-87.602;2023-07-28T05:33:38;99296.13;;;30.08;83.39
49342;BME280;35210;41.606;-87.602;2023-07-28T05:36:07;99293.91;;;30.05;84.12
49342;BME280;35210;41.606;-87.602;2023-07-28T05:38:35;99300.19;;;30.05;84.57
49342;BME280;35210;41.606;-87.602;2023-07-28T05:41:03;99288.72;;;30.03;84.43
49342;BME280;35210;41.606;-87.602;2023-07-28T05:43:33;99287.88;;;30.03;84.16
49342;BME280;35210;41.606;-87.602;2023-07-28T05:46:01;99297.94;;;30.02;84.65
49342;BME280;35210;41.606;-87.602;2023-07-28T05:48:32;99294.41;;;30.02;84.51
49342;BME280;35210;41.606;-87.602;2023-07-28T05:51:00;99291.94;;;30.00;85.15
49342;BME280;35210;41.606;-87.602;2023-07-28T05:53:28;99286.94;;;29.97;85.85
49342;BME280;35210;41.606;-87.602;2023-07-28T05:55:57;99295.13;;;29.97;86.33
49342;BME280;35210;41.606;-87.602;2023-07-28T05:58:25;99286.94;;;29.97;87.00
49342;BME280;35210;41.606;-87.602;2023-07-28T06:00:53;99287.19;;;29.96;87.95
49342;BME280;35210;41.606;-87.602;2023-07-28T06:03:21;99286.38;;;29.95;88.35
49342;BME280;35210;41.606;-87.602;2023-07-28T06:05:52;99281.50;;;29.97;88.21
49342;BME280;35210;41.606;-87.602;2023-07-28T06:08:20;99271.44;;;29.98;88.39
49342;BME280;35210;41.606;-87.602;2023-07-28T06:10:48;99281.03;;;30.00;88.39
49342;BME280;35210;41.606;-87.602;2023-07-28T06:13:16;99273.44;;;30.02;88.42
49342;BME280;35210;41.606;-87.602;2023-07-28T06:15:44;99274.78;;;30.00;88.96
49342;BME280;35210;41.606;-87.602;2023-07-28T06:18:12;99283.97;;;29.99;88.95
49342;BME280;35210;41.606;-87.602;2023-07-28T06:20:42;99292.88;;;29.94;89.37
49342;BME280;35210;41.606;-87.602;2023-07-28T06:23:12;99292.41;;;29.97;88.93
49342;BME280;35210;41.606;-87.602;2023-07-28T06:25:40;99291.09;;;30.00;88.80
49342;BME280;35210;41.606;-87.602;2023-07-28T06:28:10;99283.50;;;30.02;88.73
49342;BME280;35210;41.606;-87.602;2023-07-28T06:30:38;99269.06;;;30.01;89.04
49342;BME280;35210;41.606;-87.602;2023-07-28T06:33:07;99271.44;;;29.98;89.13
49342;BME280;35210;41.606;-87.602;2023-07-28T06:35:35;99265.53;;;30.01;88.87
49342;BME280;35210;41.606;-87.602;2023-07-28T06:38:04;99265.41;;;29.96;89.17
49342;BME280;35210;41.606;-87.602;2023-07-28T06:40:33;99258.25;;;29.90;89.82
49342;BME280;35210;41.606;-87.602;2023-07-28T06:43:01;99259.88;;;29.74;90.64
49342;BME280;35210;41.606;-87.602;2023-07-28T06:45:31;99250.97;;;29.79;90.59
49342;BME280;35210;41.606;-87.602;2023-07-28T06:47:59;99254.53;;;29.79;90.43
49342;BME280;35210;41.606;-87.602;2023-07-28T06:50:27;99255.28;;;29.74;91.16
49342;BME280;35210;41.606;-87.602;2023-07-28T06:52:56;99259.84;;;29.69;91.55
49342;BME280;35210;41.606;-87.602;2023-07-28T06:55:24;99255.75;;;29.71;91.32
49342;BME280;35210;41.606;-87.602;2023-07-28T06:57:54;99258.06;;;29.80;90.94
49342;BME280;35210;41.606;-87.602;2023-07-28T07:00:22;99252.75;;;29.68;92.35
49342;BME280;35210;41.606;-87.602;2023-07-28T07:02:50;99242.25;;;29.60;92.94
49342;BME280;35210;41.606;-87.602;2023-07-28T07:05:18;99244.97;;;29.60;93.14
49342;BME280;35210;41.606;-87.602;2023-07-28T07:07:46;99246.53;;;29.56;93.84
49342;BME280;35210;41.606;-87.602;2023-07-28T07:10:14;99244.81;;;29.50;95.00
49342;BME280;35210;41.606;-87.602;2023-07-28T07:12:43;99227.06;;;29.47;95.29
49342;BME280;35210;41.606;-87.602;2023-07-28T07:15:13;99217.69;;;29.55;94.75
49342;BME280;35210;41.606;-87.602;2023-07-28T07:17:41;99207.38;;;29.57;94.86
49342;BME280;35210;41.606;-87.602;2023-07-28T07:20:11;99204.16;;;29.60;94.70
49342;BME280;35210;41.606;-87.602;2023-07-28T07:22:39;99202.53;;;29.59;95.16
49342;BME280;35210;41.606;-87.602;2023-07-28T07:25:07;99189.41;;;29.56;95.88
49342;BME280;35210;41.606;-87.602;2023-07-28T07:27:35;99174.25;;;29.60;95.55
49342;BME280;35210;41.606;-87.602;2023-07-28T07:30:04;99165.81;;;29.61;95.62
49342;BME280;35210;41.606;-87.602;2023-07-28T07:32:35;99148.69;;;29.61;95.55
49342;BME280;35210;41.606;-87.602;2023-07-28T07:35:05;99130.69;;;29.60;96.61
49342;BME280;35210;41.606;-87.602;2023-07-28T07:37:33;99110.34;;;29.62;96.64
49342;BME280;35210;41.606;-87.602;2023-07-28T07:40:01;99094.00;;;29.62;96.67
49342;BME280;35210;41.606;-87.602;2023-07-28T07:42:40;99086.69;;;29.63;96.71
49342;BME280;35210;41.606;-87.602;2023-07-28T07:45:10;99082.31;;;29.62;97.23
49342;BME280;35210;41.606;-87.602;2023-07-28T07:47:40;99063.00;;;29.63;97.38
49342;BME280;35210;41.606;-87.602;2023-07-28T07:50:09;99071.44;;;29.62;97.96
49342;BME280;35210;41.606;-87.602;2023-07-28T07:52:38;99079.59;;;29.62;98.65
49342;BME280;35210;41.606;-87.602;2023-07-28T07:55:08;99097.22;;;29.59;99.55
49342;BME280;35210;41.606;-87.602;2023-07-28T07:57:37;99098.47;;;29.52;100.00
49342;BME280;35210;41.606;-87.602;2023-07-28T08:00:06;99109.13;;;29.53;100.00
49342;BME280;35210;41.606;-87.602;2023-07-28T08:02:35;99106.38;;;29.53;100.00
49342;BME280;35210;41.606;-87.602;2023-07-28T08:05:05;99123.72;;;29.47;100.00
49342;BME280;35210;41.606;-87.602;2023-07-28T08:07:33;99138.13;;;29.48;100.00
49342;BME280;35210;41.606;-87.602;2023-07-28T08:10:02;99168.69;;;29.38;100.00
49342;BME280;35210;41.606;-87.602;2023-07-28T08:12:30;99184.88;;;29.45;100.00
49342;BME280;35210;41.606;-87.602;2023-07-28T08:14:58;99174.22;;;29.43;100.00
49342;BME280;35210;41.606;-87.602;2023-07-28T08:17:26;99181.31;;;29.44;100.00
49342;BME280;35210;41.606;-87.602;2023-07-28T08:19:54;99185.78;;;29.50;100.00
49342;BME280;35210;41.606;-87.602;2023-07-28T08:22:24;99195.59;;;29.51;100.00
49342;BME280;35210;41.606;-87.602;2023-07-28T08:24:54;99197.56;;;29.56;100.00
49342;BME280;35210;41.606;-87.602;2023-07-28T08:27:22;99206.88;;;29.60;100.00
49342;BME280;35210;41.606;-87.602;2023-07-28T08:29:50;99205.31;;;29.64;100.00
49342;BME280;35210;41.606;-87.602;2023-07-28T08:32:18;99196.91;;;29.65;100.00
49342;BME280;35210;41.606;-87.602;2023-07-28T08:34:47;99203.75;;;29.68;100.00
49342;BME280;35210;41.606;-87.602;2023-07-28T08:37:15;99201.28;;;29.66;100.00
49342;BME280;35210;41.606;-87.602;2023-07-28T08:39:45;99211.34;;;29.66;100.00
49342;BME280;35210;41.606;-87.602;2023-07-28T08:42:13;99216.53;;;29.67;100.00
49342;BME280;35210;41.606;-87.602;2023-07-28T08:44:41;99221.16;;;29.67;100.00
49342;BME280;35210;41.606;-87.602;2023-07-28T08:47:11;99225.78;;;29.66;100.00
49342;BME280;35210;41.606;-87.602;2023-07-28T08:49:39;99242.44;;;29.70;100.00
49342;BME280;35210;41.606;-87.602;2023-07-28T08:52:08;99256.59;;;29.72;100.00
49342;BME280;35210;41.606;-87.602;2023-07-28T08:54:36;99251.97;;;29.72;100.00
49342;BME280;35210;41.606;-87.602;2023-07-28T08:57:09;99227.22;;;29.74;100.00
49342;BME280;35210;41.606;-87.602;2023-07-28T08:59:37;99213.56;;;29.69;100.00
49342;BME280;35210;41.606;-87.602;2023-07-28T09:02:09;99202.69;;;29.69;100.00
49342;BME280;35210;41.606;-87.602;2023-07-28T09:04:38;99213.03;;;29.72;100.00
49342;BME280;35210;41.606;-87.602;2023-07-28T09:07:06;99221.28;;;29.77;100.00
49342;BME280;35210;41.606;-87.602;2023-07-28T09:09:35;99212.88;;;29.79;100.00
49342;BME280;35210;41.606;-87.602;2023-07-28T09:12:04;99215.84;;;29.77;100.00
49342;BME280;35210;41.606;-87.602;2023-07-28T09:14:35;99246.59;;;29.77;100.00
49342;BME280;35210;41.606;-87.602;2023-07-28T09:17:08;99262.34;;;29.75;100.00
49342;BME280;35210;41.606;-87.602;2023-07-28T09:19:50;99259.56;;;29.87;100.00
49342;BME280;35210;41.606;-87.602;2023-07-28T09:22:19;99256.91;;;29.92;100.00
49342;BME280;35210;41.606;-87.602;2023-07-28T09:24:48;99284.16;;;29.92;99.49
49342;BME280;35210;41.606;-87.602;2023-07-28T09:27:21;99318.28;;;29.66;90.36
49342;BME280;35210;41.606;-87.602;2023-07-28T09:29:53;99331.38;;;29.41;89.62
49342;BME280;35210;41.606;-87.602;2023-07-28T09:32:30;99286.78;;;29.14;94.81
49342;BME280;35210;41.606;-87.602;2023-07-28T09:35:06;99335.00;;;28.66;97.45
49342;BME280;35210;41.606;-87.602;2023-07-28T09:37:38;99388.47;;;28.31;100.00
49342;BME280;35210;41.606;-87.602;2023-07-28T09:40:08;99421.84;;;28.20;100.00
49342;BME280;35210;41.606;-87.602;2023-07-28T09:42:39;99423.03;;;28.12;100.00
49342;BME280;35210;41.606;-87.602;2023-07-28T09:45:10;99429.34;;;27.94;100.00
49342;BME280;35210;41.606;-87.602;2023-07-28T09:47:38;99446.53;;;27.88;100.00
49342;BME280;35210;41.606;-87.602;2023-07-28T09:50:09;99448.59;;;27.74;100.00
49342;BME280;35210;41.606;-87.602;2023-07-28T09:52:41;99427.91;;;27.62;100.00
49342;BME280;35210;41.606;-87.602;2023-07-28T09:55:11;99451.97;;;27.52;100.00
49342;BME280;35210;41.606;-87.602;2023-07-28T09:57:45;99467.44;;;27.51;100.00
49342;BME280;35210;41.606;-87.602;2023-07-28T10:00:17;99451.75;;;27.53;100.00
49342;BME280;35210;41.606;-87.602;2023-07-28T10:02:46;99424.25;;;27.49;100.00
49342;BME280;35210;41.606;-87.602;2023-07-28T10:05:15;99399.75;;;27.44;100.00
49342;BME280;35210;41.606;-87.602;2023-07-28T10:07:44;99384.53;;;27.43;100.00
49342;BME280;35210;41.606;-87.602;2023-07-28T10:10:13;99375.94;;;27.46;100.00
49342;BME280;35210;41.606;-87.602;2023-07-28T10:12:46;99369.91;;;27.44;100.00
49342;BME280;35210;41.606;-87.602;2023-07-28T10:15:17;99368.56;;;27.35;100.00
49342;BME280;35210;41.606;-87.602;2023-07-28T10:17:47;99385.06;;;27.34;100.00
49342;BME280;35210;41.606;-87.602;2023-07-28T10:20:32;99405.78;;;27.28;100.00
49342;BME280;35210;41.606;-87.602;2023-07-28T10:23:05;99411.88;;;27.24;100.00
49342;BME280;35210;41.606;-87.602;2023-07-28T10:25:37;99425.06;;;27.20;100.00
49342;BME280;35210;41.606;-87.602;2023-07-28T10:28:07;99423.25;;;27.14;100.00
49342;BME280;35210;41.606;-87.602;2023-07-28T10:30:40;99411.81;;;27.12;100.00
49342;BME280;35210;41.606;-87.602;2023-07-28T10:33:28;99390.94;;;27.12;100.00
49342;BME280;35210;41.606;-87.602;2023-07-28T10:35:58;99390.50;;;26.97;100.00
49342;BME280;35210;41.606;-87.602;2023-07-28T10:38:31;99385.25;;;26.96;100.00
49342;BME280;35210;41.606;-87.602;2023-07-28T10:41:07;99390.06;;;26.94;100.00
49342;BME280;35210;41.606;-87.602;2023-07-28T10:43:36;99402.56;;;26.95;100.00
49342;BME280;35210;41.606;-87.602;2023-07-28T10:46:08;99405.69;;;26.98;100.00
49342;BME280;35210;41.606;-87.602;2023-07-28T10:48:37;99413.16;;;27.03;100.00
49342;BME280;35210;41.606;-87.602;2023-07-28T10:51:09;99424.59;;;27.05;100.00
49342;BME280;35210;41.606;-87.602;2023-07-28T10:53:38;99443.19;;;27.01;100.00
49342;BME280;35210;41.606;-87.602;2023-07-28T10:56:06;99467.78;;;27.00;100.00
49342;BME280;35210;41.606;-87.602;2023-07-28T10:58:36;99500.75;;;26.97;100.00
49342;BME280;35210;41.606;-87.602;2023-07-28T11:01:06;99529.09;;;26.94;100.00
49342;BME280;35210;41.606;-87.602;2023-07-28T11:03:34;99563.50;;;26.94;100.00
49342;BME280;35210;41.606;-87.602;2023-07-28T11:06:04;99606.84;;;26.94;100.00
49342;BME280;35210;41.606;-87.602;2023-07-28T11:08:32;99627.91;;;26.92;100.00
49342;BME280;35210;41.606;-87.602;2023-07-28T11:11:04;99650.22;;;26.94;100.00
49342;BME280;35210;41.606;-87.602;2023-07-28T11:13:33;99688.19;;;26.87;100.00
49342;BME280;35210;41.606;-87.602;2023-07-28T11:16:02;99715.25;;;26.94;100.00
49342;BME280;35210;41.606;-87.602;2023-07-28T11:18:34;99752.38;;;26.87;100.00
49342;BME280;35210;41.606;-87.602;2023-07-28T11:21:02;99770.94;;;26.83;100.00
49342;BME280;35210;41.606;-87.602;2023-07-28T11:23:31;99622.16;;;26.81;100.00
49342;BME280;35210;41.606;-87.602;2023-07-28T11:25:59;99550.88;;;26.56;100.00
49342;BME280;35210;41.606;-87.602;2023-07-28T11:28:28;99575.13;;;26.44;100.00
49342;BME280;35210;41.606;-87.602;2023-07-28T11:30:56;99602.25;;;26.31;100.00
49342;BME280;35210;41.606;-87.602;2023-07-28T11:33:24;99590.78;;;26.36;100.00
49342;BME280;35210;41.606;-87.602;2023-07-28T11:35:54;99544.38;;;26.32;100.00
49342;BME280;35210;41.606;-87.602;2023-07-28T11:38:22;99512.75;;;26.19;100.00
49342;BME280;35210;41.606;-87.602;2023-07-28T11:40:50;99494.91;;;26.12;100.00
49342;BME280;35210;41.606;-87.602;2023-07-28T11:43:19;99447.69;;;26.01;100.00
49342;BME280;35210;41.606;-87.602;2023-07-28T11:45:49;99419.28;;;25.92;100.00
49342;BME280;35210;41.606;-87.602;2023-07-28T11:48:17;99447.84;;;25.81;100.00
49342;BME280;35210;41.606;-87.602;2023-07-28T11:50:47;99451.81;;;25.79;100.00
49342;BME280;35210;41.606;-87.602;2023-07-28T11:53:18;99412.25;;;25.84;100.00
49342;BME280;35210;41.606;-87.602;2023-07-28T11:55:47;99390.38;;;25.86;100.00
49342;BME280;35210;41.606;-87.602;2023-07-28T11:58:15;99367.69;;;25.87;100.00
49342;BME280;35210;41.606;-87.602;2023-07-28T12:00:44;99402.25;;;25.85;100.00
49342;BME280;35210;41.606;-87.602;2023-07-28T12:03:13;99429.38;;;25.72;100.00
49342;BME280;35210;41.606;-87.602;2023-07-28T12:05:58;99439.44;;;25.45;100.00
49342;BME280;35210;41.606;-87.602;2023-07-28T12:08:35;99463.59;;;25.40;100.00
49342;BME280;35210;41.606;-87.602;2023-07-28T12:11:04;99489.78;;;25.39;100.00
49342;BME280;35210;41.606;-87.602;2023-07-28T12:13:32;99472.56;;;25.27;100.00
49342;BME280;35210;41.606;-87.602;2023-07-28T12:16:00;99462.00;;;25.19;100.00
49342;BME280;35210;41.606;-87.602;2023-07-28T12:18:30;99449.97;;;25.02;100.00
49342;BME280;35210;41.606;-87.602;2023-07-28T12:20:58;99437.28;;;25.09;100.00
49342;BME280;35210;41.606;-87.602;2023-07-28T12:23:26;99408.41;;;25.09;100.00
49342;BME280;35210;41.606;-87.602;2023-07-28T12:25:56;99364.72;;;25.19;100.00
49342;BME280;35210;41.606;-87.602;2023-07-28T12:28:24;99353.22;;;25.30;100.00
49342;BME280;35210;41.606;-87.602;2023-07-28T12:30:52;99346.69;;;25.44;100.00
49342;BME280;35210;41.606;-87.602;2023-07-28T12:33:22;99349.16;;;25.52;100.00
49342;BME280;35210;41.606;-87.602;2023-07-28T12:35:51;99343.28;;;25.62;100.00
49342;BME280;35210;41.606;-87.602;2023-07-28T12:38:20;99348.25;;;25.72;100.00
49342;BME280;35210;41.606;-87.602;2023-07-28T12:40:48;99338.66;;;25.76;100.00
49342;BME280;35210;41.606;-87.602;2023-07-28T12:43:18;99349.84;;;25.79;100.00
49342;BME280;35210;41.606;-87.602;2023-07-28T12:45:46;99352.13;;;25.82;100.00